sensor_id;sensor_type;location;lat;lon;timestamp;temperature;humidity
70107;DHT22;57473;37.508;15.080;2023-04-29T00:01:32;17.00;51.70
70107;DHT22;57473;37.508;15.080;2023-04-29T00:03:59;17.00;51.80
70107;DHT22;57473;37.508;15.080;2023-04-29T00:06:27;16.90;52.00
70107;DHT22;57473;37.508;15.080;2023-04-29T00:08:54;16.90;52.20
70107;DHT22;57473;37.508;15.080;2023-04-29T00:11:21;16.90;52.20
70107;DHT22;57473;37.508;15.080;2023-04-29T00:13:49;16.90;52.50
70107;DHT22;57473;37.508;15.080;2023-04-29T00:16:16;16.90;52.40
70107;DHT22;57473;37.508;15.080;2023-04-29T00:18:44;16.80;52.50
70107;DHT22;57473;37.508;15.080;2023-04-29T00:21:12;16.90;52.40
70107;DHT22;57473;37.508;15.080;2023-04-29T00:23:39;16.80;52.30
70107;DHT22;57473;37.508;15.080;2023-04-29T00:26:07;16.90;52.40
70107;DHT22;57473;37.508;15.080;2023-04-29T00:28:34;16.90;52.50
70107;DHT22;57473;37.508;15.080;2023-04-29T00:31:02;16.90;53.00
70107;DHT22;57473;37.508;15.080;2023-04-29T00:33:29;17.00;53.30
70107;DHT22;57473;37.508;15.080;2023-04-29T00:35:57;16.90;53.30
70107;DHT22;57473;37.508;15.080;2023-04-29T00:38:24;16.90;53.50
70107;DHT22;57473;37.508;15.080;2023-04-29T00:40:51;16.80;53.60
70107;DHT22;57473;37.508;15.080;2023-04-29T00:43:19;16.80;53.60
70107;DHT22;57473;37.508;15.080;2023-04-29T00:45:47;16.80;54.00
70107;DHT22;57473;37.508;15.080;2023-04-29T00:48:14;16.70;54.00
70107;DHT22;57473;37.508;15.080;2023-04-29T00:50:42;16.80;54.20
70107;DHT22;57473;37.508;15.080;2023-04-29T00:53:10;16.70;54.40
70107;DHT22;57473;37.508;15.080;2023-04-29T00:55:42;16.80;55.00
70107;DHT22;57473;37.508;15.080;2023-04-29T00:58:11;16.70;55.00
70107;DHT22;57473;37.508;15.080;2023-04-29T01:00:38;16.70;54.80
70107;DHT22;57473;37.508;15.080;2023-04-29T01:03:08;16.70;55.00
70107;DHT22;57473;37.508;15.080;2023-04-29T01:05:35;16.70;56.40
70107;DHT22;57473;37.508;15.080;2023-04-29T01:13:29;16.60;60.90
70107;DHT22;57473;37.508;15.080;2023-04-29T01:16:02;16.60;62.80
70107;DHT22;57473;37.508;15.080;2023-04-29T01:18:33;16.50;64.00
70107;DHT22;57473;37.508;15.080;2023-04-29T01:21:03;16.50;65.30
70107;DHT22;57473;37.508;15.080;2023-04-29T01:23:30;16.40;65.80
70107;DHT22;57473;37.508;15.080;2023-04-29T01:25:58;16.40;66.20
70107;DHT22;57473;37.508;15.080;2023-04-29T01:29:18;16.30;67.00
70107;DHT22;57473;37.508;15.080;2023-04-29T01:32:03;16.30;67.70
70107;DHT22;57473;37.508;15.080;2023-04-29T01:34:57;16.30;68.20
70107;DHT22;57473;37.508;15.080;2023-04-29T01:37:39;16.20;68.70
70107;DHT22;57473;37.508;15.080;2023-04-29T01:40:18;16.20;69.10
70107;DHT22;57473;37.508;15.080;2023-04-29T01:43:01;16.10;69.60
70107;DHT22;57473;37.508;15.080;2023-04-29T01:45:33;16.10;69.80
70107;DHT22;57473;37.508;15.080;2023-04-29T01:48:02;16.10;69.90
70107;DHT22;57473;37.508;15.080;2023-04-29T01:50:31;16.10;70.20
70107;DHT22;57473;37.508;15.080;2023-04-29T01:53:07;16.10;70.10
70107;DHT22;57473;37.508;15.080;2023-04-29T01:55:35;16.10;70.30
70107;DHT22;57473;37.508;15.080;2023-04-29T01:58:15;16.00;70.70
70107;DHT22;57473;37.508;15.080;2023-04-29T02:00:55;16.00;71.10
70107;DHT22;57473;37.508;15.080;2023-04-29T02:03:24;15.90;71.20
70107;DHT22;57473;37.508;15.080;2023-04-29T02:05:55;15.90;71.30
70107;DHT22;57473;37.508;15.080;2023-04-29T02:08:24;15.90;71.70
70107;DHT22;57473;37.508;15.080;2023-04-29T02:10:53;15.90;71.90
70107;DHT22;57473;37.508;15.080;2023-04-29T02:13:30;15.90;71.90
70107;DHT22;57473;37.508;15.080;2023-04-29T02:16:09;16.00;72.20
70107;DHT22;57473;37.508;15.080;2023-04-29T02:18:41;15.90;72.40
70107;DHT22;57473;37.508;15.080;2023-04-29T02:21:09;15.90;72.50
70107;DHT22;57473;37.508;15.080;2023-04-29T02:23:36;15.90;72.40
70107;DHT22;57473;37.508;15.080;2023-04-29T02:26:04;15.90;72.20
70107;DHT22;57473;37.508;15.080;2023-04-29T02:28:32;15.90;72.40
70107;DHT22;57473;37.508;15.080;2023-04-29T02:31:01;15.80;72.70
70107;DHT22;57473;37.508;15.080;2023-04-29T02:33:29;15.80;73.00
70107;DHT22;57473;37.508;15.080;2023-04-29T02:35:57;15.80;73.20
70107;DHT22;57473;37.508;15.080;2023-04-29T02:38:25;15.80;73.40
70107;DHT22;57473;37.508;15.080;2023-04-29T02:40:53;15.80;73.20
70107;DHT22;57473;37.508;15.080;2023-04-29T02:43:20;15.70;73.40
70107;DHT22;57473;37.508;15.080;2023-04-29T02:45:48;15.70;73.60
70107;DHT22;57473;37.508;15.080;2023-04-29T02:48:15;15.80;74.40
70107;DHT22;57473;37.508;15.080;2023-04-29T02:50:43;15.70;74.80
70107;DHT22;57473;37.508;15.080;2023-04-29T02:53:10;15.70;75.00
70107;DHT22;57473;37.508;15.080;2023-04-29T02:55:37;15.60;75.40
70107;DHT22;57473;37.508;15.080;2023-04-29T02:58:08;15.60;75.70
70107;DHT22;57473;37.508;15.080;2023-04-29T03:00:36;15.60;75.70
70107;DHT22;57473;37.508;15.080;2023-04-29T03:03:03;15.60;75.20
70107;DHT22;57473;37.508;15.080;2023-04-29T03:05:31;15.60;75.20
70107;DHT22;57473;37.508;15.080;2023-04-29T03:07:59;15.60;75.30
70107;DHT22;57473;37.508;15.080;2023-04-29T03:10:27;15.60;75.20
70107;DHT22;57473;37.508;15.080;2023-04-29T03:12:55;15.60;75.40
70107;DHT22;57473;37.508;15.080;2023-04-29T03:15:22;15.50;75.80
70107;DHT22;57473;37.508;15.080;2023-04-29T03:17:50;15.50;75.70
70107;DHT22;57473;37.508;15.080;2023-04-29T03:20:18;15.50;75.80
70107;DHT22;57473;37.508;15.080;2023-04-29T03:22:46;15.50;75.40
70107;DHT22;57473;37.508;15.080;2023-04-29T03:25:13;15.60;74.80
70107;DHT22;57473;37.508;15.080;2023-04-29T03:27:41;15.50;74.20
70107;DHT22;57473;37.508;15.080;2023-04-29T03:30:09;15.50;74.30
70107;DHT22;57473;37.508;15.080;2023-04-29T03:32:43;15.40;74.40
70107;DHT22;57473;37.508;15.080;2023-04-29T03:35:11;15.40;74.30
70107;DHT22;57473;37.508;15.080;2023-04-29T03:38:04;15.40;74.30
70107;DHT22;57473;37.508;15.080;2023-04-29T03:40:33;15.40;74.80
70107;DHT22;57473;37.508;15.080;2023-04-29T03:43:01;15.40;74.60
70107;DHT22;57473;37.508;15.080;2023-04-29T03:45:28;15.30;75.00
70107;DHT22;57473;37.508;15.080;2023-04-29T03:47:56;15.40;74.90
70107;DHT22;57473;37.508;15.080;2023-04-29T03:50:23;15.40;74.50
70107;DHT22;57473;37.508;15.080;2023-04-29T03:52:52;15.40;75.20
70107;DHT22;57473;37.508;15.080;2023-04-29T03:55:20;15.40;75.10
70107;DHT22;57473;37.508;15.080;2023-04-29T03:57:47;15.30;75.30
70107;DHT22;57473;37.508;15.080;2023-04-29T04:00:17;15.30;75.50
70107;DHT22;57473;37.508;15.080;2023-04-29T04:02:48;15.30;76.10
70107;DHT22;57473;37.508;15.080;2023-04-29T04:05:16;15.30;76.10
70107;DHT22;57473;37.508;15.080;2023-04-29T04:07:52;15.40;76.30
70107;DHT22;57473;37.508;15.080;2023-04-29T04:10:38;15.40;76.20
70107;DHT22;57473;37.508;15.080;2023-04-29T04:13:16;15.40;76.00
70107;DHT22;57473;37.508;15.080;2023-04-29T04:15:49;15.40;75.80
70107;DHT22;57473;37.508;15.080;2023-04-29T04:18:17;15.50;75.50
70107;DHT22;57473;37.508;15.080;2023-04-29T04:20:44;15.40;75.60
70107;DHT22;57473;37.508;15.080;2023-04-29T04:23:12;15.40;75.70
70107;DHT22;57473;37.508;15.080;2023-04-29T04:25:46;15.30;76.10
70107;DHT22;57473;37.508;15.080;2023-04-29T04:28:34;15.30;76.40
70107;DHT22;57473;37.508;15.080;2023-04-29T04:31:12;15.40;76.10
70107;DHT22;57473;37.508;15.080;2023-04-29T04:33:43;15.40;75.90
70107;DHT22;57473;37.508;15.080;2023-04-29T04:36:10;15.40;76.20
70107;DHT22;57473;37.508;15.080;2023-04-29T04:38:38;15.40;76.20
70107;DHT22;57473;37.508;15.080;2023-04-29T04:41:09;15.40;76.10
70107;DHT22;57473;37.508;15.080;2023-04-29T04:43:38;15.40;75.90
70107;DHT22;57473;37.508;15.080;2023-04-29T04:46:14;15.50;75.70
70107;DHT22;57473;37.508;15.080;2023-04-29T04:48:53;15.50;74.90
70107;DHT22;57473;37.508;15.080;2023-04-29T04:51:21;15.50;74.10
70107;DHT22;57473;37.508;15.080;2023-04-29T04:53:48;15.60;74.00
70107;DHT22;57473;37.508;15.080;2023-04-29T04:56:22;15.60;73.30
70107;DHT22;57473;37.508;15.080;2023-04-29T04:58:50;15.60;73.10
70107;DHT22;57473;37.508;15.080;2023-04-29T05:01:17;15.70;73.00
70107;DHT22;57473;37.508;15.080;2023-04-29T05:03:44;15.70;72.70
70107;DHT22;57473;37.508;15.080;2023-04-29T05:06:12;15.80;72.50
70107;DHT22;57473;37.508;15.080;2023-04-29T05:08:43;15.80;71.00
70107;DHT22;57473;37.508;15.080;2023-04-29T05:11:17;15.90;69.70
70107;DHT22;57473;37.508;15.080;2023-04-29T05:13:51;16.00;69.20
70107;DHT22;57473;37.508;15.080;2023-04-29T05:16:19;16.10;68.70
70107;DHT22;57473;37.508;15.080;2023-04-29T05:18:47;16.20;68.60
70107;DHT22;57473;37.508;15.080;2023-04-29T05:21:15;16.30;66.50
70107;DHT22;57473;37.508;15.080;2023-04-29T05:23:44;16.30;66.20
70107;DHT22;57473;37.508;15.080;2023-04-29T05:26:12;16.40;64.30
70107;DHT22;57473;37.508;15.080;2023-04-29T05:28:40;16.50;64.00
70107;DHT22;57473;37.508;15.080;2023-04-29T05:31:09;16.60;62.90
70107;DHT22;57473;37.508;15.080;2023-04-29T05:33:37;16.70;60.90
70107;DHT22;57473;37.508;15.080;2023-04-29T05:36:05;16.90;59.40
70107;DHT22;57473;37.508;15.080;2023-04-29T05:38:33;17.10;58.30
70107;DHT22;57473;37.508;15.080;2023-04-29T05:41:05;17.20;57.20
70107;DHT22;57473;37.508;15.080;2023-04-29T05:43:47;17.40;56.90
70107;DHT22;57473;37.508;15.080;2023-04-29T05:46:15;17.50;54.90
70107;DHT22;57473;37.508;15.080;2023-04-29T05:48:43;17.70;54.40
70107;DHT22;57473;37.508;15.080;2023-04-29T05:51:12;17.80;53.10
70107;DHT22;57473;37.508;15.080;2023-04-29T05:53:40;17.90;52.20
70107;DHT22;57473;37.508;15.080;2023-04-29T05:56:07;18.10;51.50
70107;DHT22;57473;37.508;15.080;2023-04-29T05:58:35;18.30;49.90
70107;DHT22;57473;37.508;15.080;2023-04-29T06:01:03;18.40;48.70
70107;DHT22;57473;37.508;15.080;2023-04-29T06:03:30;18.50;47.80
70107;DHT22;57473;37.508;15.080;2023-04-29T06:06:27;18.60;47.10
70107;DHT22;57473;37.508;15.080;2023-04-29T06:09:02;18.70;46.60
70107;DHT22;57473;37.508;15.080;2023-04-29T06:11:40;18.80;46.00
70107;DHT22;57473;37.508;15.080;2023-04-29T06:14:07;18.90;46.00
70107;DHT22;57473;37.508;15.080;2023-04-29T06:16:35;19.00;45.70
70107;DHT22;57473;37.508;15.080;2023-04-29T06:19:02;19.20;45.30
70107;DHT22;57473;37.508;15.080;2023-04-29T06:21:30;19.20;45.40
70107;DHT22;57473;37.508;15.080;2023-04-29T06:23:59;19.30;45.30
70107;DHT22;57473;37.508;15.080;2023-04-29T06:26:26;19.50;45.30
70107;DHT22;57473;37.508;15.080;2023-04-29T06:28:54;19.60;44.80
70107;DHT22;57473;37.508;15.080;2023-04-29T06:31:21;19.70;44.50
70107;DHT22;57473;37.508;15.080;2023-04-29T06:33:51;19.80;44.00
70107;DHT22;57473;37.508;15.080;2023-04-29T06:36:19;19.90;43.60
70107;DHT22;57473;37.508;15.080;2023-04-29T06:39:04;19.90;42.50
70107;DHT22;57473;37.508;15.080;2023-04-29T06:42:06;19.90;41.50
70107;DHT22;57473;37.508;15.080;2023-04-29T06:45:10;20.00;40.70
70107;DHT22;57473;37.508;15.080;2023-04-29T06:47:40;20.20;40.40
70107;DHT22;57473;37.508;15.080;2023-04-29T06:50:11;20.30;40.30
70107;DHT22;57473;37.508;15.080;2023-04-29T06:52:39;20.40;39.70
70107;DHT22;57473;37.508;15.080;2023-04-29T06:55:06;20.40;39.50
70107;DHT22;57473;37.508;15.080;2023-04-29T06:57:34;20.40;39.80
70107;DHT22;57473;37.508;15.080;2023-04-29T07:00:03;20.50;39.40
70107;DHT22;57473;37.508;15.080;2023-04-29T07:02:30;20.70;39.30
70107;DHT22;57473;37.508;15.080;2023-04-29T07:04:58;20.80;39.10
70107;DHT22;57473;37.508;15.080;2023-04-29T07:07:26;21.00;38.50
70107;DHT22;57473;37.508;15.080;2023-04-29T07:09:53;20.90;38.90
70107;DHT22;57473;37.508;15.080;2023-04-29T07:12:21;21.00;38.50
70107;DHT22;57473;37.508;15.080;2023-04-29T07:14:53;21.00;38.40
70107;DHT22;57473;37.508;15.080;2023-04-29T07:17:21;21.10;38.20
70107;DHT22;57473;37.508;15.080;2023-04-29T07:19:48;21.10;38.00
70107;DHT22;57473;37.508;15.080;2023-04-29T07:22:16;21.20;38.30
70107;DHT22;57473;37.508;15.080;2023-04-29T07:24:43;21.20;38.30
70107;DHT22;57473;37.508;15.080;2023-04-29T07:27:11;21.40;38.20
70107;DHT22;57473;37.508;15.080;2023-04-29T07:29:38;21.50;37.90
70107;DHT22;57473;37.508;15.080;2023-04-29T07:32:06;21.50;38.10
70107;DHT22;57473;37.508;15.080;2023-04-29T07:34:35;21.70;38.30
70107;DHT22;57473;37.508;15.080;2023-04-29T07:37:03;21.80;37.80
70107;DHT22;57473;37.508;15.080;2023-04-29T07:39:30;22.00;37.60
70107;DHT22;57473;37.508;15.080;2023-04-29T07:41:58;22.20;37.40
70107;DHT22;57473;37.508;15.080;2023-04-29T07:44:26;22.20;36.90
70107;DHT22;57473;37.508;15.080;2023-04-29T07:46:53;22.10;36.80
70107;DHT22;57473;37.508;15.080;2023-04-29T07:49:22;22.10;36.90
70107;DHT22;57473;37.508;15.080;2023-04-29T07:51:50;22.20;36.70
70107;DHT22;57473;37.508;15.080;2023-04-29T07:54:17;22.40;36.60
70107;DHT22;57473;37.508;15.080;2023-04-29T07:56:45;22.50;36.20
70107;DHT22;57473;37.508;15.080;2023-04-29T07:59:13;22.60;35.70
70107;DHT22;57473;37.508;15.080;2023-04-29T08:01:41;22.40;35.90
70107;DHT22;57473;37.508;15.080;2023-04-29T08:04:08;22.50;36.10
70107;DHT22;57473;37.508;15.080;2023-04-29T08:06:46;22.60;35.70
70107;DHT22;57473;37.508;15.080;2023-04-29T08:09:13;22.80;35.70
70107;DHT22;57473;37.508;15.080;2023-04-29T08:11:42;22.90;35.80
70107;DHT22;57473;37.508;15.080;2023-04-29T08:14:12;22.90;36.20
70107;DHT22;57473;37.508;15.080;2023-04-29T08:16:39;22.90;36.30
70107;DHT22;57473;37.508;15.080;2023-04-29T08:19:07;23.10;36.30
70107;DHT22;57473;37.508;15.080;2023-04-29T08:21:34;23.20;36.00
70107;DHT22;57473;37.508;15.080;2023-04-29T08:24:01;23.30;36.20
70107;DHT22;57473;37.508;15.080;2023-04-29T08:26:29;23.50;35.90
70107;DHT22;57473;37.508;15.080;2023-04-29T08:28:56;23.60;35.40
70107;DHT22;57473;37.508;15.080;2023-04-29T08:31:23;23.60;35.40
70107;DHT22;57473;37.508;15.080;2023-04-29T08:33:52;23.80;35.20
70107;DHT22;57473;37.508;15.080;2023-04-29T08:36:20;23.90;35.00
70107;DHT22;57473;37.508;15.080;2023-04-29T08:38:47;23.90;34.90
70107;DHT22;57473;37.508;15.080;2023-04-29T08:41:18;23.90;34.70
70107;DHT22;57473;37.508;15.080;2023-04-29T08:43:45;24.10;34.80
70107;DHT22;57473;37.508;15.080;2023-04-29T08:46:13;24.40;35.00
70107;DHT22;57473;37.508;15.080;2023-04-29T08:48:41;24.40;34.80
70107;DHT22;57473;37.508;15.080;2023-04-29T08:51:12;24.30;34.70
70107;DHT22;57473;37.508;15.080;2023-04-29T08:53:42;24.40;34.90
70107;DHT22;57473;37.508;15.080;2023-04-29T08:56:17;24.60;34.50
70107;DHT22;57473;37.508;15.080;2023-04-29T08:58:50;24.40;34.30
70107;DHT22;57473;37.508;15.080;2023-04-29T09:01:21;24.30;35.00
70107;DHT22;57473;37.508;15.080;2023-04-29T09:06:36;24.50;35.10
70107;DHT22;57473;37.508;15.080;2023-04-29T09:09:05;24.30;34.90
70107;DHT22;57473;37.508;15.080;2023-04-29T09:11:33;24.40;35.30
70107;DHT22;57473;37.508;15.080;2023-04-29T09:14:02;24.60;35.00
70107;DHT22;57473;37.508;15.080;2023-04-29T09:16:30;24.90;34.70
70107;DHT22;57473;37.508;15.080;2023-04-29T09:18:57;24.90;35.00
70107;DHT22;57473;37.508;15.080;2023-04-29T09:21:26;25.00;34.80
70107;DHT22;57473;37.508;15.080;2023-04-29T09:23:55;24.90;35.70
70107;DHT22;57473;37.508;15.080;2023-04-29T09:26:24;24.90;36.60
70107;DHT22;57473;37.508;15.080;2023-04-29T09:31:36;24.30;39.90
70107;DHT22;57473;37.508;15.080;2023-04-29T09:34:04;24.10;40.80
70107;DHT22;57473;37.508;15.080;2023-04-29T09:36:45;24.00;41.60
70107;DHT22;57473;37.508;15.080;2023-04-29T09:44:22;23.50;41.00
70107;DHT22;57473;37.508;15.080;2023-04-29T09:46:56;23.40;41.40
70107;DHT22;57473;37.508;15.080;2023-04-29T09:49:38;23.20;41.80
70107;DHT22;57473;37.508;15.080;2023-04-29T09:52:12;23.10;42.00
70107;DHT22;57473;37.508;15.080;2023-04-29T09:54:41;23.00;41.80
70107;DHT22;57473;37.508;15.080;2023-04-29T09:57:10;22.90;41.90
70107;DHT22;57473;37.508;15.080;2023-04-29T09:59:40;23.00;41.60
70107;DHT22;57473;37.508;15.080;2023-04-29T10:02:17;23.00;41.90
70107;DHT22;57473;37.508;15.080;2023-04-29T10:04:46;22.80;43.40
70107;DHT22;57473;37.508;15.080;2023-04-29T10:07:17;22.80;43.60
70107;DHT22;57473;37.508;15.080;2023-04-29T10:09:45;22.80;44.90
70107;DHT22;57473;37.508;15.080;2023-04-29T10:12:16;22.80;43.80
70107;DHT22;57473;37.508;15.080;2023-04-29T10:15:00;22.90;44.40
70107;DHT22;57473;37.508;15.080;2023-04-29T10:20:24;23.10;42.90
70107;DHT22;57473;37.508;15.080;2023-04-29T10:22:53;23.20;42.30
70107;DHT22;57473;37.508;15.080;2023-04-29T10:25:23;23.10;42.60
70107;DHT22;57473;37.508;15.080;2023-04-29T10:27:52;23.00;41.90
70107;DHT22;57473;37.508;15.080;2023-04-29T10:30:21;22.70;42.10
70107;DHT22;57473;37.508;15.080;2023-04-29T10:32:49;22.70;42.20
70107;DHT22;57473;37.508;15.080;2023-04-29T10:35:20;22.80;42.30
70107;DHT22;57473;37.508;15.080;2023-04-29T10:37:52;23.00;41.00
70107;DHT22;57473;37.508;15.080;2023-04-29T10:40:43;23.10;39.50
70107;DHT22;57473;37.508;15.080;2023-04-29T10:43:13;23.30;39.50
70107;DHT22;57473;37.508;15.080;2023-04-29T10:45:42;23.20;39.10
70107;DHT22;57473;37.508;15.080;2023-04-29T10:48:09;23.30;39.80
70107;DHT22;57473;37.508;15.080;2023-04-29T10:50:58;23.10;40.40
70107;DHT22;57473;37.508;15.080;2023-04-29T10:53:26;23.10;40.60
70107;DHT22;57473;37.508;15.080;2023-04-29T10:55:58;23.20;40.10
70107;DHT22;57473;37.508;15.080;2023-04-29T11:01:13;23.40;44.20
70107;DHT22;57473;37.508;15.080;2023-04-29T11:03:48;23.90;45.20
70107;DHT22;57473;37.508;15.080;2023-04-29T11:06:16;24.10;45.40
70107;DHT22;57473;37.508;15.080;2023-04-29T11:08:43;24.10;46.00
70107;DHT22;57473;37.508;15.080;2023-04-29T11:11:12;24.30;46.60
70107;DHT22;57473;37.508;15.080;2023-04-29T11:13:44;24.30;46.10
70107;DHT22;57473;37.508;15.080;2023-04-29T11:16:12;24.20;45.10
70107;DHT22;57473;37.508;15.080;2023-04-29T11:19:08;24.80;43.40
70107;DHT22;57473;37.508;15.080;2023-04-29T11:21:36;25.50;41.50
70107;DHT22;57473;37.508;15.080;2023-04-29T11:24:05;25.30;41.20
70107;DHT22;57473;37.508;15.080;2023-04-29T11:26:35;25.10;41.30
70107;DHT22;57473;37.508;15.080;2023-04-29T11:29:07;25.20;41.20
70107;DHT22;57473;37.508;15.080;2023-04-29T11:31:38;25.10;41.20
70107;DHT22;57473;37.508;15.080;2023-04-29T11:34:05;25.50;40.80
70107;DHT22;57473;37.508;15.080;2023-04-29T11:36:34;25.60;40.70
70107;DHT22;57473;37.508;15.080;2023-04-29T11:39:03;25.90;40.20
70107;DHT22;57473;37.508;15.080;2023-04-29T11:41:30;26.30;37.80
70107;DHT22;57473;37.508;15.080;2023-04-29T11:43:59;26.50;38.10
70107;DHT22;57473;37.508;15.080;2023-04-29T11:46:29;26.60;36.70
70107;DHT22;57473;37.508;15.080;2023-04-29T11:48:57;26.50;36.00
70107;DHT22;57473;37.508;15.080;2023-04-29T11:51:28;26.40;35.40
70107;DHT22;57473;37.508;15.080;2023-04-29T11:53:57;26.60;34.50
70107;DHT22;57473;37.508;15.080;2023-04-29T11:56:24;26.30;34.60
70107;DHT22;57473;37.508;15.080;2023-04-29T11:58:56;26.10;35.20
70107;DHT22;57473;37.508;15.080;2023-04-29T12:01:25;26.50;35.10
70107;DHT22;57473;37.508;15.080;2023-04-29T12:03:56;27.10;33.50
70107;DHT22;57473;37.508;15.080;2023-04-29T12:06:29;27.70;33.10
70107;DHT22;57473;37.508;15.080;2023-04-29T12:08:59;27.90;31.30
70107;DHT22;57473;37.508;15.080;2023-04-29T12:11:27;27.80;31.90
70107;DHT22;57473;37.508;15.080;2023-04-29T12:13:56;28.00;31.00
70107;DHT22;57473;37.508;15.080;2023-04-29T12:16:24;28.30;30.80
70107;DHT22;57473;37.508;15.080;2023-04-29T12:18:52;28.40;31.30
70107;DHT22;57473;37.508;15.080;2023-04-29T12:21:21;28.40;31.10
70107;DHT22;57473;37.508;15.080;2023-04-29T12:23:50;28.10;31.10
70107;DHT22;57473;37.508;15.080;2023-04-29T12:26:18;28.40;30.70
70107;DHT22;57473;37.508;15.080;2023-04-29T12:28:48;28.50;30.10
70107;DHT22;57473;37.508;15.080;2023-04-29T12:31:19;27.70;30.30
70107;DHT22;57473;37.508;15.080;2023-04-29T12:33:47;28.30;29.70
70107;DHT22;57473;37.508;15.080;2023-04-29T12:36:18;29.00;27.70
70107;DHT22;57473;37.508;15.080;2023-04-29T12:38:46;28.70;28.40
70107;DHT22;57473;37.508;15.080;2023-04-29T12:41:13;28.80;29.20
70107;DHT22;57473;37.508;15.080;2023-04-29T12:43:43;28.90;29.70
70107;DHT22;57473;37.508;15.080;2023-04-29T12:46:10;28.50;30.00
70107;DHT22;57473;37.508;15.080;2023-04-29T12:48:41;27.80;29.40
70107;DHT22;57473;37.508;15.080;2023-04-29T12:51:10;27.80;30.60
70107;DHT22;57473;37.508;15.080;2023-04-29T12:53:38;28.20;29.90
70107;DHT22;57473;37.508;15.080;2023-04-29T12:56:05;27.70;30.90
70107;DHT22;57473;37.508;15.080;2023-04-29T12:58:33;28.40;31.00
70107;DHT22;57473;37.508;15.080;2023-04-29T13:01:01;29.10;28.80
70107;DHT22;57473;37.508;15.080;2023-04-29T13:03:28;29.20;27.50
70107;DHT22;57473;37.508;15.080;2023-04-29T13:05:57;28.50;27.90
70107;DHT22;57473;37.508;15.080;2023-04-29T13:08:25;28.10;28.80
70107;DHT22;57473;37.508;15.080;2023-04-29T13:10:53;28.40;28.60
70107;DHT22;57473;37.508;15.080;2023-04-29T13:13:20;28.90;28.30
70107;DHT22;57473;37.508;15.080;2023-04-29T13:15:48;28.20;28.60
70107;DHT22;57473;37.508;15.080;2023-04-29T13:18:15;29.00;28.20
70107;DHT22;57473;37.508;15.080;2023-04-29T13:20:42;29.80;27.80
70107;DHT22;57473;37.508;15.080;2023-04-29T13:23:10;30.10;26.80
70107;DHT22;57473;37.508;15.080;2023-04-29T13:25:40;28.80;28.10
70107;DHT22;57473;37.508;15.080;2023-04-29T13:28:08;28.80;28.00
70107;DHT22;57473;37.508;15.080;2023-04-29T13:30:35;28.10;28.60
70107;DHT22;57473;37.508;15.080;2023-04-29T13:33:02;27.80;29.30
70107;DHT22;57473;37.508;15.080;2023-04-29T13:35:38;28.70;28.30
70107;DHT22;57473;37.508;15.080;2023-04-29T13:38:07;29.00;27.30
70107;DHT22;57473;37.508;15.080;2023-04-29T13:40:35;28.30;28.00
70107;DHT22;57473;37.508;15.080;2023-04-29T13:43:11;28.70;27.90
70107;DHT22;57473;37.508;15.080;2023-04-29T13:45:48;27.50;29.10
70107;DHT22;57473;37.508;15.080;2023-04-29T13:48:15;26.30;30.50
70107;DHT22;57473;37.508;15.080;2023-04-29T13:51:03;26.20;31.50
70107;DHT22;57473;37.508;15.080;2023-04-29T13:53:50;27.40;30.30
70107;DHT22;57473;37.508;15.080;2023-04-29T13:56:21;27.80;30.30
70107;DHT22;57473;37.508;15.080;2023-04-29T13:58:51;29.00;28.90
70107;DHT22;57473;37.508;15.080;2023-04-29T14:01:39;29.20;27.70
70107;DHT22;57473;37.508;15.080;2023-04-29T14:04:09;28.70;28.30
70107;DHT22;57473;37.508;15.080;2023-04-29T14:06:37;28.50;28.00
70107;DHT22;57473;37.508;15.080;2023-04-29T14:09:04;28.60;28.10
70107;DHT22;57473;37.508;15.080;2023-04-29T14:11:32;29.20;27.10
70107;DHT22;57473;37.508;15.080;2023-04-29T14:14:03;28.40;27.70
70107;DHT22;57473;37.508;15.080;2023-04-29T14:16:30;27.60;28.70
70107;DHT22;57473;37.508;15.080;2023-04-29T14:18:58;27.00;29.30
70107;DHT22;57473;37.508;15.080;2023-04-29T14:21:29;26.10;30.50
70107;DHT22;57473;37.508;15.080;2023-04-29T14:24:00;25.10;31.70
70107;DHT22;57473;37.508;15.080;2023-04-29T14:26:30;24.60;32.20
70107;DHT22;57473;37.508;15.080;2023-04-29T14:28:58;24.70;32.30
70107;DHT22;57473;37.508;15.080;2023-04-29T14:31:27;24.50;32.60
70107;DHT22;57473;37.508;15.080;2023-04-29T14:33:56;24.40;32.80
70107;DHT22;57473;37.508;15.080;2023-04-29T14:36:24;24.30;32.80
70107;DHT22;57473;37.508;15.080;2023-04-29T14:38:55;24.20;32.90
70107;DHT22;57473;37.508;15.080;2023-04-29T14:41:22;24.20;32.90
70107;DHT22;57473;37.508;15.080;2023-04-29T14:43:49;24.20;32.80
70107;DHT22;57473;37.508;15.080;2023-04-29T14:46:17;24.20;32.90
70107;DHT22;57473;37.508;15.080;2023-04-29T14:48:44;24.40;32.70
70107;DHT22;57473;37.508;15.080;2023-04-29T14:51:12;24.40;32.70
70107;DHT22;57473;37.508;15.080;2023-04-29T14:53:39;24.30;32.90
70107;DHT22;57473;37.508;15.080;2023-04-29T14:56:07;24.10;33.10
70107;DHT22;57473;37.508;15.080;2023-04-29T14:58:34;23.80;33.70
70107;DHT22;57473;37.508;15.080;2023-04-29T15:01:01;23.70;34.10
70107;DHT22;57473;37.508;15.080;2023-04-29T15:03:31;23.70;34.30
70107;DHT22;57473;37.508;15.080;2023-04-29T15:06:02;23.50;34.50
70107;DHT22;57473;37.508;15.080;2023-04-29T15:08:30;23.40;34.80
70107;DHT22;57473;37.508;15.080;2023-04-29T15:10:58;23.40;35.20
70107;DHT22;57473;37.508;15.080;2023-04-29T15:13:25;23.40;35.70
70107;DHT22;57473;37.508;15.080;2023-04-29T15:15:53;23.60;35.80
70107;DHT22;57473;37.508;15.080;2023-04-29T15:18:21;23.60;35.80
70107;DHT22;57473;37.508;15.080;2023-04-29T15:20:49;23.50;35.90
70107;DHT22;57473;37.508;15.080;2023-04-29T15:23:16;23.50;36.10
70107;DHT22;57473;37.508;15.080;2023-04-29T15:25:44;23.60;36.60
70107;DHT22;57473;37.508;15.080;2023-04-29T15:28:11;23.70;36.30
70107;DHT22;57473;37.508;15.080;2023-04-29T15:30:39;23.60;35.90
70107;DHT22;57473;37.508;15.080;2023-04-29T15:33:06;23.70;35.90
70107;DHT22;57473;37.508;15.080;2023-04-29T15:35:33;23.50;35.70
70107;DHT22;57473;37.508;15.080;2023-04-29T15:38:02;23.50;35.40
70107;DHT22;57473;37.508;15.080;2023-04-29T15:40:29;23.40;35.50
70107;DHT22;57473;37.508;15.080;2023-04-29T15:42:57;23.40;35.80
70107;DHT22;57473;37.508;15.080;2023-04-29T15:45:24;23.50;36.00
70107;DHT22;57473;37.508;15.080;2023-04-29T15:47:52;23.40;36.30
70107;DHT22;57473;37.508;15.080;2023-04-29T15:50:19;23.40;36.40
70107;DHT22;57473;37.508;15.080;2023-04-29T15:52:47;23.40;35.90
70107;DHT22;57473;37.508;15.080;2023-04-29T15:55:14;23.50;35.60